createdAt,value
2019-06-08T00:01:56.772Z,24.14
2019-06-08T00:03:58.449Z,24.12
2019-06-08T00:06:00.049Z,24.12
2019-06-08T00:08:01.685Z,24.12
2019-06-08T00:10:03.334Z,24.10
2019-06-08T00:12:04.910Z,24.10
2019-06-08T00:14:07.585Z,24.09
2019-06-08T00:16:09.297Z,24.09
2019-06-08T00:18:11.688Z,24.07
2019-06-08T00:20:13.506Z,24.03
2019-06-08T00:22:15.750Z,24.04
2019-06-08T00:24:17.788Z,24.04
2019-06-08T00:26:19.993Z,24.02
2019-06-08T00:28:20.527Z,24.01
2019-06-08T00:30:22.138Z,24.00
2019-06-08T00:32:24.514Z,23.99
2019-06-08T00:34:25.497Z,23.99
2019-06-08T00:36:27.150Z,24.03
2019-06-08T00:38:28.782Z,24.03
2019-06-08T00:40:30.515Z,24.02
2019-06-08T00:42:32.356Z,24.02
2019-06-08T00:44:33.995Z,24.02
2019-06-08T00:46:35.842Z,23.98
2019-06-08T00:48:37.530Z,23.98
2019-06-08T00:50:39.162Z,23.98
2019-06-08T00:52:40.730Z,24.02
2019-06-08T00:54:42.440Z,23.94
2019-06-08T00:56:44.212Z,23.83
2019-06-08T00:58:45.986Z,23.90
2019-06-08T01:00:49.025Z,23.95
2019-06-08T01:02:49.311Z,23.96
2019-06-08T01:04:51.111Z,24.01
2019-06-08T01:06:52.762Z,24.03
2019-06-08T01:08:54.385Z,24.04
2019-06-08T01:10:56.028Z,24.04
2019-06-08T01:12:57.687Z,24.04
2019-06-08T01:14:59.490Z,24.05
2019-06-08T01:17:01.134Z,24.03
2019-06-08T01:19:02.712Z,24.02
2019-06-08T01:21:04.380Z,24.02
2019-06-08T01:23:06.080Z,24.01
2019-06-08T01:25:07.706Z,24.01
2019-06-08T01:27:09.376Z,24.01
2019-06-08T01:29:10.971Z,24.00
2019-06-08T01:31:12.640Z,23.99
2019-06-08T01:33:14.266Z,24.00
2019-06-08T01:35:15.866Z,24.03
2019-06-08T01:37:17.912Z,24.02
2019-06-08T01:39:19.543Z,24.02
2019-06-08T01:41:21.364Z,24.01
2019-06-08T01:43:23.667Z,24.01
2019-06-08T01:45:30.573Z,24.01
2019-06-08T01:47:32.434Z,24.02
2019-06-08T01:49:33.911Z,24.01
2019-06-08T01:51:35.542Z,24.00
2019-06-08T01:53:37.171Z,23.99
2019-06-08T01:55:38.811Z,23.99
2019-06-08T01:57:40.429Z,23.98
2019-06-08T01:59:42.067Z,24.01
2019-06-08T02:01:43.743Z,23.99
2019-06-08T02:03:45.318Z,23.95
2019-06-08T02:05:47.061Z,23.97
2019-06-08T02:07:48.737Z,23.94
2019-06-08T02:09:50.362Z,23.95
2019-06-08T02:11:51.993Z,23.94
2019-06-08T02:13:53.562Z,23.93
2019-06-08T02:15:55.333Z,23.91
2019-06-08T02:17:56.937Z,23.91
2019-06-08T02:19:58.586Z,23.90
2019-06-08T02:22:00.351Z,23.91
2019-06-08T02:24:01.998Z,23.91
2019-06-08T02:26:03.670Z,23.91
2019-06-08T02:28:05.482Z,23.90
2019-06-08T02:30:07.116Z,23.89
2019-06-08T02:32:08.756Z,23.87
2019-06-08T02:34:10.500Z,23.85
2019-06-08T02:36:12.134Z,23.85
2019-06-08T02:38:14.563Z,23.84
2019-06-08T02:40:16.217Z,23.82
2019-06-08T02:42:18.348Z,23.82
2019-06-08T02:44:19.988Z,23.81
2019-06-08T02:46:21.618Z,23.81
2019-06-08T02:48:23.346Z,23.83
2019-06-08T02:50:24.987Z,23.83
2019-06-08T02:52:26.643Z,23.55
2019-06-08T02:54:29.989Z,23.80
2019-06-08T02:56:31.668Z,23.78
2019-06-08T02:58:33.398Z,23.80
2019-06-08T03:00:34.035Z,23.82
2019-06-08T03:02:36.924Z,23.81
2019-06-08T03:04:38.519Z,23.81
2019-06-08T03:06:39.430Z,23.81
2019-06-08T03:08:43.371Z,23.79
2019-06-08T03:10:41.859Z,23.77
2019-06-08T03:12:43.489Z,23.76
2019-06-08T03:14:45.308Z,23.79
2019-06-08T03:16:46.963Z,23.83
2019-06-08T03:18:48.593Z,23.85
2019-06-08T03:20:50.336Z,23.86
2019-06-08T03:22:52.230Z,23.86
2019-06-08T03:24:54.303Z,23.87
2019-06-08T03:26:56.063Z,23.86
2019-06-08T03:28:57.716Z,23.87
2019-06-08T03:30:59.374Z,23.87
2019-06-08T03:33:01.080Z,23.86
2019-06-08T03:35:02.718Z,23.85
2019-06-08T03:37:04.738Z,23.84
2019-06-08T03:39:06.385Z,23.84
2019-06-08T03:41:08.014Z,23.83
2019-06-08T03:43:09.651Z,23.84
2019-06-08T03:45:11.314Z,23.84
2019-06-08T03:47:13.013Z,23.85
2019-06-08T03:49:14.586Z,23.85
2019-06-08T03:51:16.154Z,23.87
2019-06-08T03:53:17.808Z,23.87
2019-06-08T03:55:19.480Z,23.90
2019-06-08T03:57:21.106Z,23.92
2019-06-08T03:59:22.956Z,23.93
2019-06-08T04:01:24.563Z,23.94
2019-06-08T04:03:26.352Z,23.96
2019-06-08T04:05:27.992Z,23.99
2019-06-08T04:07:29.618Z,23.97
2019-06-08T04:09:31.244Z,23.95
2019-06-08T04:11:32.998Z,23.93
2019-06-08T04:13:34.595Z,23.91
2019-06-08T04:15:37.809Z,23.89
2019-06-08T04:17:39.693Z,23.88
2019-06-08T04:19:56.427Z,23.83
2019-06-08T04:21:42.216Z,23.84
2019-06-08T04:23:45.351Z,23.80
2019-06-08T04:25:47.427Z,23.77
2019-06-08T04:27:47.280Z,23.75
2019-06-08T04:29:50.174Z,23.74
2019-06-08T04:31:50.761Z,23.73
2019-06-08T04:33:52.422Z,23.72
2019-06-08T04:35:54.317Z,23.71
2019-06-08T04:37:56.370Z,23.69
2019-06-08T04:39:58.003Z,23.67
2019-06-08T04:41:59.636Z,23.67
2019-06-08T04:44:01.271Z,23.65
2019-06-08T04:46:03.002Z,23.64
2019-06-08T04:48:08.452Z,23.65
2019-06-08T04:50:22.010Z,23.60
2019-06-08T04:52:08.011Z,23.64
2019-06-08T04:54:09.659Z,23.66
2019-06-08T04:56:11.387Z,23.40
2019-06-08T04:58:13.308Z,23.68
2019-06-08T05:00:14.930Z,23.67
2019-06-08T05:02:16.802Z,23.69
2019-06-08T05:04:18.422Z,23.70
2019-06-08T05:06:20.055Z,23.73
2019-06-08T05:08:21.642Z,23.76
2019-06-08T05:10:23.267Z,23.73
2019-06-08T05:12:24.910Z,23.77
2019-06-08T05:14:26.511Z,23.76
2019-06-08T05:16:28.142Z,23.75
2019-06-08T05:18:29.984Z,23.49
2019-06-08T05:20:39.095Z,23.74
2019-06-08T05:22:33.302Z,23.74
2019-06-08T05:24:34.875Z,23.75
2019-06-08T05:26:36.476Z,23.76
2019-06-08T05:28:39.096Z,23.73
2019-06-08T05:30:41.200Z,23.79
2019-06-08T05:32:41.630Z,23.73
2019-06-08T05:34:43.454Z,23.70
2019-06-08T05:36:45.446Z,23.67
2019-06-08T05:38:47.621Z,23.65
2019-06-08T05:40:49.758Z,23.64
2019-06-08T05:42:50.285Z,23.63
2019-06-08T05:44:52.230Z,23.63
2019-06-08T05:46:53.834Z,23.62
2019-06-08T05:48:55.502Z,23.60
2019-06-08T05:51:03.975Z,23.60
2019-06-08T05:52:58.764Z,23.64
2019-06-08T05:55:00.523Z,23.64
2019-06-08T05:57:02.126Z,23.65
2019-06-08T05:59:03.713Z,23.76
2019-06-08T06:01:05.338Z,23.60
2019-06-08T06:03:07.731Z,23.76
2019-06-08T06:05:09.414Z,23.75
2019-06-08T06:07:11.182Z,23.73
2019-06-08T06:09:12.810Z,23.74
2019-06-08T06:11:14.962Z,23.77
2019-06-08T06:13:16.715Z,23.77
2019-06-08T06:15:18.319Z,23.83
2019-06-08T06:17:19.986Z,23.94
2019-06-08T06:19:21.613Z,24.01
2019-06-08T06:21:23.285Z,23.80
2019-06-08T06:23:24.862Z,24.11
2019-06-08T06:25:26.520Z,24.14
2019-06-08T06:27:28.177Z,24.22
2019-06-08T06:29:29.893Z,24.25
2019-06-08T06:31:31.530Z,24.27
2019-06-08T06:33:33.190Z,24.01
2019-06-08T06:35:34.842Z,24.17
2019-06-08T06:37:36.501Z,24.10
2019-06-08T06:39:38.572Z,24.06
2019-06-08T06:41:41.753Z,24.02
2019-06-08T06:43:42.282Z,24.13
2019-06-08T06:45:44.368Z,24.32
2019-06-08T06:47:46.435Z,24.40
2019-06-08T06:49:48.411Z,24.44
2019-06-08T06:51:50.474Z,24.48
2019-06-08T06:53:51.423Z,24.50
2019-06-08T06:55:53.423Z,24.51
2019-06-08T06:57:54.795Z,24.43
2019-06-08T06:59:56.471Z,24.34
2019-06-08T07:01:58.175Z,24.29
2019-06-08T07:03:59.803Z,24.23
2019-06-08T07:06:01.579Z,24.28
2019-06-08T07:08:03.245Z,24.31
2019-06-08T07:10:05.025Z,24.30
2019-06-08T07:12:06.694Z,24.27
2019-06-08T07:14:08.303Z,24.26
2019-06-08T07:16:18.348Z,24.25
2019-06-08T07:18:11.603Z,24.23
2019-06-08T07:20:13.875Z,24.21
2019-06-08T07:22:15.687Z,24.18
2019-06-08T07:24:17.455Z,24.06
2019-06-08T07:26:19.083Z,24.14
2019-06-08T07:28:20.723Z,24.14
2019-06-08T07:30:22.434Z,24.11
2019-06-08T07:32:24.051Z,24.10
2019-06-08T07:34:25.646Z,24.09
2019-06-08T07:36:27.323Z,24.06
2019-06-08T07:38:28.946Z,24.05
2019-06-08T07:40:30.641Z,24.04
2019-06-08T07:42:32.418Z,24.03
2019-06-08T07:44:34.092Z,24.02
2019-06-08T07:46:35.671Z,24.01
2019-06-08T07:48:37.339Z,23.99
2019-06-08T07:50:38.976Z,24.00
2019-06-08T07:52:40.606Z,24.00
2019-06-08T07:54:42.254Z,24.01
2019-06-08T07:56:43.933Z,23.99
2019-06-08T07:58:45.511Z,23.99
2019-06-08T08:00:47.143Z,23.98
2019-06-08T08:02:50.068Z,23.97
2019-06-08T08:04:50.730Z,23.96
2019-06-08T08:06:52.539Z,23.95
2019-06-08T08:08:54.830Z,23.93
2019-06-08T08:10:56.736Z,23.96
2019-06-08T08:12:58.953Z,23.98
2019-06-08T08:14:59.935Z,23.97
2019-06-08T08:17:01.543Z,23.63
2019-06-08T08:19:03.267Z,22.69
2019-06-08T08:21:15.867Z,22.26
2019-06-08T08:23:09.099Z,22.05
2019-06-08T08:25:08.455Z,21.85
2019-06-08T08:27:10.068Z,21.95
2019-06-08T08:29:11.706Z,21.90
2019-06-08T08:31:15.248Z,21.91
2019-06-08T08:33:15.190Z,21.84
2019-06-08T08:35:18.562Z,21.70
2019-06-08T08:37:18.519Z,21.63
2019-06-08T08:39:20.142Z,21.71
2019-06-08T08:41:21.887Z,21.58
2019-06-08T08:43:23.546Z,21.92
2019-06-08T08:45:27.478Z,22.57
2019-06-08T08:47:27.748Z,23.03
2019-06-08T08:49:28.554Z,23.21
2019-06-08T08:51:30.260Z,23.15
2019-06-08T08:53:32.193Z,23.11
2019-06-08T08:55:33.825Z,23.10
2019-06-08T08:57:38.107Z,23.16
2019-06-08T08:59:38.239Z,23.20
2019-06-08T09:01:39.270Z,23.23
2019-06-08T09:03:40.926Z,23.24
2019-06-08T09:05:43.389Z,23.27
2019-06-08T09:07:45.083Z,23.29
2019-06-08T09:09:48.204Z,23.31
2019-06-08T09:11:48.619Z,23.31
2019-06-08T09:13:51.919Z,23.29
2019-06-08T09:15:52.709Z,23.13
2019-06-08T09:17:55.747Z,23.50
2019-06-08T09:19:58.811Z,23.61
2019-06-08T09:22:00.208Z,23.60
2019-06-08T09:24:02.603Z,23.68
2019-06-08T09:26:07.694Z,23.67
2019-06-08T09:28:04.732Z,23.84
2019-06-08T09:30:04.825Z,23.78
2019-06-08T09:32:08.231Z,23.43
2019-06-08T09:34:12.166Z,23.22
2019-06-08T09:36:09.790Z,23.07
2019-06-08T09:38:11.537Z,23.11
2019-06-08T09:40:13.299Z,23.15
2019-06-08T09:42:14.947Z,23.21
2019-06-08T09:44:18.592Z,22.89
2019-06-08T09:46:18.289Z,22.95
2019-06-08T09:48:19.944Z,22.86
2019-06-08T09:50:21.665Z,22.56
2019-06-08T09:52:23.242Z,22.79
2019-06-08T09:54:24.874Z,22.79
2019-06-08T09:56:28.332Z,22.71
2019-06-08T09:58:29.120Z,22.67
2019-06-08T10:00:30.074Z,22.46
2019-06-08T10:02:31.816Z,22.22
2019-06-08T10:04:33.606Z,22.45
2019-06-08T10:06:37.781Z,22.40
2019-06-08T10:08:38.783Z,22.19
2019-06-08T10:10:38.766Z,22.35
2019-06-08T10:12:41.343Z,22.42
2019-06-08T10:14:42.921Z,22.45
2019-06-08T10:16:44.573Z,22.49
2019-06-08T10:18:48.548Z,22.59
2019-06-08T10:20:48.334Z,22.71
2019-06-08T10:22:50.499Z,22.68
2019-06-08T10:24:51.837Z,22.59
2019-06-08T10:26:54.932Z,22.50
2019-06-08T10:28:55.356Z,22.54
2019-06-08T10:30:59.616Z,22.57
2019-06-08T10:33:00.589Z,22.66
2019-06-08T10:35:02.263Z,22.68
2019-06-08T10:37:04.983Z,22.55
2019-06-08T10:39:10.179Z,22.37
2019-06-08T10:41:14.807Z,22.39
2019-06-08T10:43:09.939Z,22.41
2019-06-08T10:45:14.273Z,22.40
2019-06-08T10:47:12.083Z,22.40
2019-06-08T10:49:14.143Z,22.45
2019-06-08T10:51:14.392Z,22.42
2019-06-08T10:53:16.703Z,22.38
2019-06-08T10:55:18.130Z,22.37
2019-06-08T10:57:19.601Z,22.27
2019-06-08T10:59:22.094Z,22.27
2019-06-08T11:01:23.722Z,22.24
2019-06-08T11:03:25.618Z,22.19
2019-06-08T11:05:28.071Z,22.14
2019-06-08T11:07:29.100Z,21.89
2019-06-08T11:09:30.742Z,22.07
2019-06-08T11:11:32.381Z,22.59
2019-06-08T11:13:33.973Z,22.81
2019-06-08T11:15:37.830Z,22.88
2019-06-08T11:17:37.890Z,22.89
2019-06-08T11:19:39.180Z,22.85
2019-06-08T11:21:40.904Z,22.85
2019-06-08T11:23:42.606Z,22.83
2019-06-08T11:25:44.213Z,22.92
2019-06-08T11:27:47.507Z,22.63
2019-06-08T11:29:47.773Z,22.89
2019-06-08T11:31:50.928Z,22.83
2019-06-08T11:33:50.991Z,22.60
2019-06-08T11:35:52.816Z,22.85
2019-06-08T11:37:54.471Z,22.89
2019-06-08T11:39:57.656Z,22.77
2019-06-08T11:41:58.793Z,22.68
2019-06-08T11:44:00.124Z,22.64
2019-06-08T11:46:02.588Z,22.54
2019-06-08T11:48:04.525Z,22.58
2019-06-08T11:50:04.910Z,22.78
2019-06-08T11:52:06.908Z,22.92
2019-06-08T11:54:25.488Z,22.90
2019-06-08T11:56:13.086Z,22.73
2019-06-08T11:58:13.678Z,22.66
2019-06-08T12:00:24.234Z,22.65
2019-06-08T12:02:14.979Z,22.63
2019-06-08T12:04:18.404Z,22.67
2019-06-08T12:06:18.641Z,22.66
2019-06-08T12:08:21.011Z,22.60
2019-06-08T12:10:21.681Z,22.64
2019-06-08T12:12:23.342Z,22.61
2019-06-08T12:14:25.025Z,22.63
2019-06-08T12:16:28.284Z,22.68
2019-06-08T12:18:28.408Z,22.78
2019-06-08T12:20:30.054Z,22.79
2019-06-08T12:22:31.670Z,22.80
2019-06-08T12:24:41.945Z,22.87
2019-06-08T12:26:34.996Z,22.94
2019-06-08T12:28:38.137Z,22.95
2019-06-08T12:30:38.505Z,22.86
2019-06-08T12:32:39.959Z,23.01
2019-06-08T12:34:41.674Z,23.07
2019-06-08T12:36:43.907Z,23.01
2019-06-08T12:38:45.578Z,23.06
2019-06-08T12:40:48.526Z,23.03
2019-06-08T12:42:49.385Z,22.91
2019-06-08T12:44:51.165Z,22.88
2019-06-08T12:46:52.882Z,22.91
2019-06-08T12:48:54.450Z,22.78
2019-06-08T12:50:56.019Z,22.70
2019-06-08T12:52:58.321Z,22.68
2019-06-08T12:55:06.325Z,22.78
2019-06-08T12:57:01.082Z,22.62
2019-06-08T12:59:02.710Z,22.50
2019-06-08T13:01:04.315Z,22.50
2019-06-08T13:03:08.199Z,22.67
2019-06-08T13:05:11.576Z,22.80
2019-06-08T13:07:10.486Z,22.88
2019-06-08T13:09:11.985Z,22.90
2019-06-08T13:11:13.867Z,22.92
2019-06-08T13:13:14.530Z,22.68
2019-06-08T13:15:19.548Z,22.94
2019-06-08T13:17:19.887Z,22.94
2019-06-08T13:19:20.334Z,22.94
2019-06-08T13:21:34.069Z,22.96
2019-06-08T13:23:23.726Z,23.04
2019-06-08T13:25:37.473Z,22.87
2019-06-08T13:27:28.182Z,22.99
2019-06-08T13:29:29.570Z,22.98
2019-06-08T13:31:31.219Z,22.98
2019-06-08T13:33:32.859Z,22.97
2019-06-08T13:35:34.521Z,22.97
2019-06-08T13:37:36.182Z,22.97
2019-06-08T13:39:38.807Z,22.96
2019-06-08T13:41:39.778Z,22.96
2019-06-08T13:43:41.439Z,22.95
2019-06-08T13:45:43.120Z,22.95
2019-06-08T13:47:44.715Z,22.92
2019-06-08T13:49:47.975Z,22.93
2019-06-08T13:51:50.653Z,22.93
2019-06-08T13:53:50.066Z,22.93
2019-06-08T13:55:56.412Z,22.93
2019-06-08T13:57:53.121Z,22.92
2019-06-08T13:59:54.942Z,22.92
2019-06-08T14:01:57.991Z,22.90
2019-06-08T14:03:58.405Z,22.90
2019-06-08T14:06:00.010Z,22.89
2019-06-08T14:08:01.638Z,22.87
2019-06-08T14:10:03.415Z,22.85
2019-06-08T14:12:04.988Z,22.86
2019-06-08T14:14:08.382Z,22.86
2019-06-08T14:16:11.557Z,22.86
2019-06-08T14:18:10.961Z,22.84
2019-06-08T14:20:12.615Z,22.84
2019-06-08T14:22:14.380Z,22.83
2019-06-08T14:24:18.186Z,22.82
2019-06-08T14:26:19.851Z,22.82
2019-06-08T14:28:21.206Z,22.81
2019-06-08T14:30:22.313Z,22.82
2019-06-08T14:32:23.823Z,22.80
2019-06-08T14:34:24.892Z,22.79
2019-06-08T14:36:28.690Z,22.79
2019-06-08T14:38:35.854Z,22.78
2019-06-08T14:40:32.732Z,22.78
2019-06-08T14:42:31.885Z,22.77
2019-06-08T14:44:34.044Z,22.76
2019-06-08T14:46:35.020Z,22.76
2019-06-08T14:48:37.945Z,22.76
2019-06-08T14:50:40.776Z,22.48
2019-06-08T14:52:40.210Z,22.75
2019-06-08T14:54:41.887Z,22.74
2019-06-08T14:56:43.654Z,22.74
2019-06-08T14:58:48.162Z,22.74
2019-06-08T15:00:48.010Z,22.72
2019-06-08T15:02:49.900Z,22.70
2019-06-08T15:04:50.645Z,22.73
2019-06-08T15:06:52.269Z,22.72
2019-06-08T15:08:54.124Z,22.77
2019-06-08T15:10:58.049Z,23.00
2019-06-08T15:12:57.941Z,22.91
2019-06-08T15:14:59.129Z,22.76
2019-06-08T15:17:01.028Z,22.75
2019-06-08T15:19:02.680Z,22.76
2019-06-08T15:21:04.331Z,22.76
2019-06-08T15:23:08.307Z,22.76
2019-06-08T15:25:08.212Z,22.76
2019-06-08T15:27:09.486Z,22.76
2019-06-08T15:29:11.159Z,22.74
2019-06-08T15:31:12.839Z,22.76
2019-06-08T15:33:14.480Z,22.75
2019-06-08T15:35:18.158Z,22.74
2019-06-08T15:37:19.593Z,22.74
2019-06-08T15:39:21.646Z,22.71
2019-06-08T15:41:24.514Z,22.73
2019-06-08T15:43:25.925Z,22.73
2019-06-08T15:45:28.815Z,22.72
2019-06-08T15:47:28.270Z,22.72
2019-06-08T15:49:32.230Z,22.47
2019-06-08T15:51:35.490Z,22.71
2019-06-08T15:53:34.179Z,22.71
2019-06-08T15:55:37.469Z,22.71
2019-06-08T15:57:40.529Z,22.71
2019-06-08T15:59:41.773Z,22.70
2019-06-08T16:01:41.355Z,22.70
2019-06-08T16:03:43.107Z,22.70
2019-06-08T16:05:44.767Z,22.69
2019-06-08T16:07:46.451Z,22.69
2019-06-08T16:09:48.070Z,22.69
2019-06-08T16:11:49.698Z,22.68
2019-06-08T16:13:51.345Z,22.68
2019-06-08T16:15:52.993Z,22.68
2019-06-08T16:17:54.710Z,22.67
2019-06-08T16:19:56.459Z,22.67
2019-06-08T16:21:58.094Z,22.67
2019-06-08T16:23:59.756Z,22.66
2019-06-08T16:26:01.395Z,22.66
2019-06-08T16:28:03.083Z,22.67
2019-06-08T16:30:09.100Z,22.66
2019-06-08T16:32:06.453Z,22.65
2019-06-08T16:34:08.086Z,22.65
2019-06-08T16:36:09.723Z,22.65
2019-06-08T16:38:11.356Z,22.62
2019-06-08T16:40:13.017Z,22.64
2019-06-08T16:42:14.602Z,22.63
2019-06-08T16:44:16.258Z,22.60
2019-06-08T16:46:17.894Z,22.63
2019-06-08T16:48:19.470Z,22.63
2019-06-08T16:50:24.752Z,22.62
2019-06-08T16:52:23.054Z,22.61
2019-06-08T16:54:24.685Z,22.61
2019-06-08T16:56:27.699Z,22.48
2019-06-08T16:58:28.106Z,22.61
2019-06-08T17:00:31.559Z,22.60
2019-06-08T17:02:32.736Z,22.61
2019-06-08T17:04:33.267Z,22.60
2019-06-08T17:06:35.281Z,22.52
2019-06-08T17:08:39.175Z,22.49
2019-06-08T17:10:38.831Z,22.50
2019-06-08T17:12:40.627Z,22.50
2019-06-08T17:14:42.866Z,22.50
2019-06-08T17:16:44.563Z,22.49
2019-06-08T17:18:46.232Z,22.21
2019-06-08T17:20:47.884Z,22.31
2019-06-08T17:22:49.516Z,22.47
2019-06-08T17:24:51.166Z,22.46
2019-06-08T17:26:52.794Z,22.33
2019-06-08T17:28:54.399Z,22.45
2019-06-08T17:30:56.103Z,22.45
2019-06-08T17:32:57.749Z,22.44
2019-06-08T17:34:59.405Z,22.43
2019-06-08T17:37:01.078Z,22.43
2019-06-08T17:39:02.713Z,22.42
2019-06-08T17:41:04.365Z,22.42
2019-06-08T17:43:06.018Z,22.41
2019-06-08T17:45:07.652Z,22.41
2019-06-08T17:47:09.289Z,22.40
2019-06-08T17:49:10.974Z,22.39
2019-06-08T17:51:12.566Z,22.39
2019-06-08T17:53:14.182Z,22.38
2019-06-08T17:55:15.811Z,22.38
2019-06-08T17:57:17.663Z,22.37
2019-06-08T17:59:19.295Z,22.36
2019-06-08T18:01:21.425Z,22.36
2019-06-08T18:03:23.063Z,22.35
2019-06-08T18:05:24.714Z,22.32
2019-06-08T18:07:27.763Z,22.34
2019-06-08T18:09:28.185Z,22.33
2019-06-08T18:11:29.731Z,22.33
2019-06-08T18:13:31.326Z,22.32
2019-06-08T18:15:34.030Z,22.32
2019-06-08T18:17:37.589Z,22.31
2019-06-08T18:19:39.831Z,22.31
2019-06-08T18:21:40.073Z,22.31
2019-06-08T18:23:40.882Z,22.30
2019-06-08T18:25:42.099Z,22.29
2019-06-08T18:28:00.743Z,22.29
2019-06-08T18:29:46.117Z,22.27
2019-06-08T18:31:48.130Z,22.27
2019-06-08T18:33:50.435Z,22.27
2019-06-08T18:35:50.335Z,22.26
2019-06-08T18:37:51.945Z,22.26
2019-06-08T18:39:53.611Z,22.25
2019-06-08T18:41:58.199Z,22.24
2019-06-08T18:43:58.325Z,22.23
2019-06-08T18:45:59.374Z,22.23
2019-06-08T18:48:01.151Z,22.22
2019-06-08T18:50:02.934Z,22.22
2019-06-08T18:52:04.812Z,22.21
2019-06-08T18:54:13.951Z,22.20
2019-06-08T18:56:08.357Z,22.19
2019-06-08T18:58:21.336Z,22.19
2019-06-08T19:00:11.924Z,22.18
2019-06-08T19:02:13.487Z,22.15
2019-06-08T19:04:15.134Z,22.17
2019-06-08T19:06:18.745Z,22.17
2019-06-08T19:08:18.419Z,22.15
2019-06-08T19:10:20.079Z,22.16
2019-06-08T19:12:21.783Z,22.61
2019-06-08T19:14:23.419Z,22.84
2019-06-08T19:16:25.114Z,23.00
2019-06-08T19:18:26.914Z,23.34
2019-06-08T19:20:28.555Z,23.65
2019-06-08T19:22:30.422Z,23.70
2019-06-08T19:24:31.998Z,23.74
2019-06-08T19:26:33.667Z,23.82
2019-06-08T19:28:37.180Z,23.86
2019-06-08T19:30:39.419Z,23.91
2019-06-08T19:32:40.488Z,23.97
2019-06-08T19:34:42.207Z,23.78
2019-06-08T19:36:43.135Z,24.02
2019-06-08T19:38:44.653Z,24.04
2019-06-08T19:40:46.142Z,24.05
2019-06-08T19:42:55.415Z,24.15
2019-06-08T19:44:59.307Z,24.31
2019-06-08T19:46:53.139Z,24.39
2019-06-08T19:48:54.877Z,24.17
2019-06-08T19:50:54.895Z,24.26
2019-06-08T19:52:58.070Z,23.88
2019-06-08T19:54:58.311Z,23.92
2019-06-08T19:57:00.012Z,23.95
2019-06-08T19:59:05.008Z,24.10
2019-06-08T20:01:03.735Z,24.31
2019-06-08T20:03:07.647Z,24.19
2019-06-08T20:05:10.221Z,24.32
2019-06-08T20:07:09.597Z,24.32
2019-06-08T20:09:11.222Z,24.53
2019-06-08T20:11:12.856Z,24.55
2019-06-08T20:13:14.508Z,24.68
2019-06-08T20:15:18.389Z,24.61
2019-06-08T20:17:19.408Z,24.37
2019-06-08T20:19:19.656Z,24.38
2019-06-08T20:21:21.254Z,24.45
2019-06-08T20:23:22.959Z,24.63
2019-06-08T20:25:24.618Z,24.67
2019-06-08T20:27:27.692Z,24.69
2019-06-08T20:29:29.387Z,24.33
2019-06-08T20:31:31.014Z,24.17
2019-06-08T20:33:32.702Z,23.85
2019-06-08T20:35:34.377Z,23.75
2019-06-08T20:37:37.722Z,23.67
2019-06-08T20:39:38.371Z,23.66
2019-06-08T20:41:40.041Z,23.95
2019-06-08T20:43:42.795Z,24.35
2019-06-08T20:45:44.085Z,24.57
2019-06-08T20:47:47.731Z,24.48
2019-06-08T20:49:49.325Z,24.34
2019-06-08T20:51:49.783Z,24.28
2019-06-08T20:53:52.475Z,24.27
2019-06-08T20:55:53.914Z,24.27
2019-06-08T20:57:54.486Z,24.39
2019-06-08T20:59:58.067Z,24.36
2019-06-08T21:01:58.931Z,24.43
2019-06-08T21:03:59.646Z,24.42
2019-06-08T21:06:01.279Z,24.37
2019-06-08T21:08:02.917Z,24.37
2019-06-08T21:10:04.601Z,24.38
2019-06-08T21:12:06.307Z,24.37
2019-06-08T21:14:07.878Z,24.45
2019-06-08T21:16:09.547Z,24.45
2019-06-08T21:18:11.218Z,24.20
2019-06-08T21:20:13.661Z,24.45
2019-06-08T21:22:18.232Z,24.45
2019-06-08T21:24:17.519Z,24.44
2019-06-08T21:26:19.130Z,24.42
2019-06-08T21:28:20.973Z,24.43
2019-06-08T21:30:24.811Z,24.42
2019-06-08T21:32:24.331Z,24.43
2019-06-08T21:34:25.958Z,24.41
2019-06-08T21:36:27.672Z,24.42
2019-06-08T21:38:29.719Z,24.43
2019-06-08T21:40:32.249Z,24.40
2019-06-08T21:42:34.124Z,24.08
2019-06-08T21:44:37.204Z,23.99
2019-06-08T21:46:38.051Z,23.94
2019-06-08T21:48:39.666Z,23.80
2019-06-08T21:50:41.298Z,23.72
2019-06-08T21:52:42.894Z,23.64
2019-06-08T21:54:44.522Z,23.58
2019-06-08T21:56:48.840Z,23.55
2019-06-08T21:58:49.725Z,23.48
2019-06-08T22:00:50.767Z,23.44
2019-06-08T22:02:51.749Z,23.41
2019-06-08T22:04:56.270Z,23.39
2019-06-08T22:06:56.659Z,23.38
2019-06-08T22:08:59.017Z,23.35
2019-06-08T22:11:00.380Z,23.32
2019-06-08T22:13:01.120Z,23.29
2019-06-08T22:15:03.002Z,23.26
2019-06-08T22:17:03.608Z,23.23
2019-06-08T22:19:07.631Z,23.23
2019-06-08T22:21:08.056Z,23.22
2019-06-08T22:23:09.237Z,23.22
2019-06-08T22:25:10.906Z,23.22
2019-06-08T22:27:12.691Z,23.22
2019-06-08T22:29:14.365Z,23.22
2019-06-08T22:31:17.109Z,23.20
2019-06-08T22:33:17.769Z,23.20
2019-06-08T22:35:19.426Z,23.18
2019-06-08T22:37:21.007Z,23.16
2019-06-08T22:39:22.584Z,23.15
2019-06-08T22:41:24.216Z,23.13
2019-06-08T22:43:25.822Z,23.12
2019-06-08T22:45:28.134Z,23.11
2019-06-08T22:47:29.264Z,23.08
2019-06-08T22:49:30.896Z,23.08
2019-06-08T22:51:32.677Z,22.83
2019-06-08T22:53:34.312Z,23.07
2019-06-08T22:55:38.001Z,23.06
2019-06-08T22:57:37.951Z,23.05
2019-06-08T22:59:39.807Z,23.04
2019-06-08T23:01:41.430Z,23.05
2019-06-08T23:03:43.055Z,23.07
2019-06-08T23:05:44.716Z,23.07
2019-06-08T23:07:48.633Z,23.16
2019-06-08T23:09:48.096Z,23.20
2019-06-08T23:11:49.731Z,23.22
2019-06-08T23:13:51.391Z,23.23
2019-06-08T23:15:53.071Z,23.23
2019-06-08T23:17:55.401Z,23.22
2019-06-08T23:19:57.823Z,23.21
2019-06-08T23:21:59.820Z,23.21
2019-06-08T23:24:01.303Z,23.20
2019-06-08T23:26:03.746Z,23.19
2019-06-08T23:28:03.630Z,23.19
2019-06-08T23:30:07.073Z,23.18
2019-06-08T23:32:11.108Z,23.16
2019-06-08T23:34:11.108Z,23.15
2019-06-08T23:36:44.463Z,23.16
2019-06-08T23:38:11.897Z,23.16
2019-06-08T23:40:13.534Z,23.15
2019-06-08T23:42:17.718Z,23.14
2019-06-08T23:44:17.664Z,23.14
2019-06-08T23:46:18.706Z,23.13
2019-06-08T23:48:20.476Z,23.12
2019-06-08T23:50:22.121Z,23.11
2019-06-08T23:52:23.811Z,23.10
2019-06-08T23:54:27.823Z,23.10
2019-06-08T23:56:27.734Z,23.09
2019-06-08T23:58:28.978Z,23.09
